Time;durP1;ratioP1;P1;durP2;ratioP2;P2;SDS_P1;SDS_P2;PMS_P1;PMS_P2;Temp;Humidity;BMP_temperature;BMP_pressure;BME280_temperature;BME280_humidity;BME280_pressure;Samples;Min_cycle;Max_cycle;Signal;HPM_P1;HPM_P2
2023/04/27 00:01:33;;;;;;;3.70;2.23;;;6.90;99.90;;;;;;5056057;28;20201;-67
2023/04/27 00:03:59;;;;;;;2.70;2.50;;;6.90;99.90;;;;;;5054089;28;20523;-67
2023/04/27 00:06:26;;;;;;;3.50;1.97;;;6.90;99.90;;;;;;5054183;28;20312;-68
2023/04/27 00:08:51;;;;;;;2.43;1.87;;;6.90;99.90;;;;;;5053862;28;20207;-67
2023/04/27 00:11:17;;;;;;;3.80;2.60;;;6.90;99.90;;;;;;5049281;28;20444;-67
2023/04/27 00:13:43;;;;;;;4.83;2.10;;;6.90;99.90;;;;;;5054158;28;20682;-68
2023/04/27 00:16:08;;;;;;;2.70;2.37;;;6.90;99.90;;;;;;5046729;28;20578;-67
2023/04/27 00:18:34;;;;;;;2.17;1.97;;;6.90;99.90;;;;;;5054271;28;20695;-67
2023/04/27 00:21:00;;;;;;;3.93;1.97;;;6.80;99.90;;;;;;5052277;28;20207;-67
2023/04/27 00:23:26;;;;;;;4.30;2.60;;;6.80;99.90;;;;;;5049641;28;20211;-67
2023/04/27 00:25:52;;;;;;;6.27;2.17;;;6.80;99.90;;;;;;5051922;28;20171;-67
2023/04/27 00:28:17;;;;;;;3.50;2.00;;;6.80;99.90;;;;;;5054579;28;20778;-67
2023/04/27 00:30:43;;;;;;;2.60;1.93;;;6.80;99.90;;;;;;5051077;28;20182;-67
2023/04/27 00:33:09;;;;;;;2.63;2.30;;;6.80;99.90;;;;;;5053793;28;20513;-67
2023/04/27 00:35:35;;;;;;;4.27;1.97;;;6.80;99.90;;;;;;5049765;28;20425;-68
2023/04/27 00:38:00;;;;;;;3.50;2.27;;;6.80;99.90;;;;;;5052790;28;20179;-66
2023/04/27 00:40:26;;;;;;;3.70;3.10;;;6.80;99.90;;;;;;5048247;28;20248;-66
2023/04/27 00:42:51;;;;;;;7.77;2.20;;;6.80;99.90;;;;;;5051788;28;20206;-67
2023/04/27 00:45:17;;;;;;;4.17;2.47;;;6.80;99.90;;;;;;5051715;28;20172;-67
2023/04/27 00:47:43;;;;;;;4.10;2.63;;;6.80;99.90;;;;;;5047732;28;20207;-68
2023/04/27 00:50:10;;;;;;;3.90;2.30;;;6.80;99.90;;;;;;5055768;28;20587;-68
2023/04/27 00:52:37;;;;;;;3.07;2.30;;;6.80;99.90;;;;;;5052598;28;20497;-68
2023/04/27 00:55:03;;;;;;;2.67;2.10;;;6.80;99.90;;;;;;5055796;28;21854;-68
2023/04/27 00:57:30;;;;;;;3.17;2.07;;;6.70;99.90;;;;;;5048518;28;20439;-67
2023/04/27 00:59:55;;;;;;;4.33;1.87;;;6.70;99.90;;;;;;5051881;28;20421;-68
2023/04/27 01:02:21;;;;;;;2.60;2.10;;;6.70;99.90;;;;;;5053741;28;20457;-66
2023/04/27 01:04:49;;;;;;;4.80;1.73;;;6.60;99.90;;;;;;5051935;28;20212;-67
2023/04/27 01:07:16;;;;;;;5.10;1.87;;;6.70;99.90;;;;;;5053716;28;20768;-67
2023/04/27 01:09:42;;;;;;;2.20;1.80;;;6.70;99.90;;;;;;5050489;28;20414;-67
2023/04/27 01:12:07;;;;;;;2.67;2.47;;;6.70;99.90;;;;;;5052424;28;20417;-67
2023/04/27 01:14:35;;;;;;;4.07;2.40;;;6.70;99.90;;;;;;5048377;28;20271;-66
2023/04/27 01:17:01;;;;;;;2.57;2.13;;;6.60;99.90;;;;;;5050875;28;20217;-66
2023/04/27 01:19:27;;;;;;;2.33;2.10;;;6.60;99.90;;;;;;5053396;28;20417;-66
2023/04/27 01:21:53;;;;;;;2.17;1.97;;;6.70;99.90;;;;;;5052236;28;20187;-67
2023/04/27 01:24:19;;;;;;;2.20;2.00;;;6.60;99.90;;;;;;5047889;28;20482;-67
2023/04/27 01:26:44;;;;;;;1.70;1.60;;;6.60;99.90;;;;;;5050186;28;20274;-66
2023/04/27 01:29:10;;;;;;;3.90;2.03;;;6.60;99.90;;;;;;5051837;28;20266;-67
2023/04/27 01:31:35;;;;;;;5.97;2.03;;;6.60;99.90;;;;;;5053482;28;20175;-67
2023/04/27 01:34:01;;;;;;;4.97;2.67;;;6.50;99.90;;;;;;5047641;28;20587;-67
2023/04/27 01:36:27;;;;;;;2.23;1.77;;;6.50;99.90;;;;;;5049188;28;20286;-67
2023/04/27 01:38:52;;;;;;;3.00;2.10;;;6.60;99.90;;;;;;5052018;28;20213;-67
2023/04/27 01:41:18;;;;;;;5.40;2.40;;;6.50;99.90;;;;;;5053308;28;20751;-66
2023/04/27 01:43:43;;;;;;;2.37;2.17;;;6.60;99.90;;;;;;5049023;28;20199;-66
2023/04/27 01:46:12;;;;;;;13.53;3.83;;;6.50;99.90;;;;;;5051837;28;20195;-67
2023/04/27 01:48:38;;;;;;;4.87;2.17;;;6.50;99.90;;;;;;5048489;28;20543;-66
2023/04/27 01:51:04;;;;;;;5.60;2.93;;;6.50;99.90;;;;;;5039428;28;20409;-67
2023/04/27 01:53:30;;;;;;;4.50;2.27;;;6.50;99.90;;;;;;5046046;28;20531;-67
2023/04/27 01:55:56;;;;;;;3.77;2.70;;;6.50;99.90;;;;;;5051927;28;20264;-67
2023/04/27 01:58:21;;;;;;;3.97;2.73;;;6.50;99.90;;;;;;5053168;28;20261;-67
2023/04/27 02:00:47;;;;;;;4.20;2.10;;;6.50;99.90;;;;;;5047523;28;20463;-67
2023/04/27 02:03:12;;;;;;;3.50;2.03;;;6.40;99.90;;;;;;5052837;28;20213;-67
2023/04/27 02:05:38;;;;;;;2.13;1.90;;;6.40;99.90;;;;;;5048579;28;20518;-67
2023/04/27 02:08:05;;;;;;;5.90;2.47;;;6.40;99.90;;;;;;5049766;28;20191;-67
2023/04/27 02:10:30;;;;;;;3.37;2.00;;;6.40;99.90;;;;;;5052513;28;20177;-67
2023/04/27 02:12:56;;;;;;;4.67;3.43;;;6.40;99.90;;;;;;5050790;28;20538;-67
2023/04/27 02:15:22;;;;;;;3.10;2.13;;;6.40;99.90;;;;;;5046099;28;20705;-67
2023/04/27 02:17:47;;;;;;;3.20;2.93;;;6.40;99.90;;;;;;5052583;28;20210;-67
2023/04/27 02:20:13;;;;;;;4.53;2.60;;;6.30;99.90;;;;;;5049006;28;20410;-67
2023/04/27 02:22:43;;;;;;;4.80;2.40;;;6.30;99.90;;;;;;5051246;28;20189;-68
2023/04/27 02:25:10;;;;;;;2.73;2.40;;;6.30;99.90;;;;;;5042320;28;20317;-68
2023/04/27 02:27:37;;;;;;;4.17;2.60;;;6.30;99.90;;;;;;5050705;28;20445;-68
2023/04/27 02:30:06;;;;;;;4.20;2.40;;;6.40;99.90;;;;;;5050102;28;20411;-68
2023/04/27 02:32:33;;;;;;;6.77;2.60;;;6.30;99.90;;;;;;5047345;28;20433;-68
2023/04/27 02:34:59;;;;;;;4.27;2.10;;;6.30;99.90;;;;;;5052351;28;20401;-66
2023/04/27 02:37:24;;;;;;;3.50;1.60;;;6.20;99.90;;;;;;5055513;28;20436;-66
2023/04/27 02:39:50;;;;;;;3.83;2.10;;;6.20;99.90;;;;;;5057248;28;20183;-67
2023/04/27 02:42:16;;;;;;;3.97;2.40;;;6.20;99.90;;;;;;5052716;28;20191;-68
2023/04/27 02:44:41;;;;;;;6.57;2.60;;;6.20;99.90;;;;;;5040831;28;20213;-67
2023/04/27 02:47:07;;;;;;;3.70;2.20;;;6.20;99.90;;;;;;5047278;28;20199;-68
2023/04/27 02:49:33;;;;;;;7.97;4.03;;;6.20;99.90;;;;;;5054601;28;20171;-67
2023/04/27 02:51:58;;;;;;;2.03;1.60;;;6.20;99.90;;;;;;5056104;28;20317;-67
2023/04/27 02:54:24;;;;;;;3.43;2.20;;;6.20;99.90;;;;;;5055849;28;20602;-68
2023/04/27 02:56:50;;;;;;;4.63;2.43;;;6.10;99.90;;;;;;5055872;28;20328;-68
2023/04/27 02:59:16;;;;;;;5.67;2.80;;;6.20;99.90;;;;;;5055625;28;20179;-66
2023/04/27 03:01:41;;;;;;;3.30;1.80;;;6.10;99.90;;;;;;5055721;28;20899;-67
2023/04/27 03:04:07;;;;;;;4.07;2.10;;;6.10;99.90;;;;;;5054366;28;20174;-67
2023/04/27 03:06:33;;;;;;;1.70;1.60;;;6.10;99.90;;;;;;5055595;28;20695;-67
2023/04/27 03:08:58;;;;;;;3.47;2.03;;;6.10;99.90;;;;;;5055940;28;20177;-67
2023/04/27 03:11:24;;;;;;;6.03;2.53;;;6.10;99.90;;;;;;5055592;28;20194;-67
2023/04/27 03:13:49;;;;;;;3.93;2.10;;;6.10;99.90;;;;;;5055815;28;20629;-67
2023/04/27 03:16:15;;;;;;;2.50;1.83;;;6.10;99.90;;;;;;5056404;28;20214;-67
2023/04/27 03:18:40;;;;;;;5.77;2.13;;;6.10;99.90;;;;;;5056679;28;20182;-66
2023/04/27 03:21:10;;;;;;;2.70;1.57;;;6.10;99.90;;;;;;5055865;28;20174;-67
2023/04/27 03:23:37;;;;;;;2.33;2.13;;;6.10;99.90;;;;;;5055063;28;20250;-67
2023/04/27 03:26:10;;;;;;;2.33;1.93;;;6.10;99.90;;;;;;5055708;28;20519;-66
2023/04/27 03:28:37;;;;;;;2.40;2.20;;;6.00;99.90;;;;;;5055907;28;20746;-67
2023/04/27 03:31:10;;;;;;;3.03;2.00;;;6.10;99.90;;;;;;5055953;28;20413;-67
2023/04/27 03:33:36;;;;;;;2.27;1.93;;;6.00;99.90;;;;;;5055861;28;20533;-67
2023/04/27 03:36:03;;;;;;;2.87;2.40;;;6.10;99.90;;;;;;5056072;28;20969;-66
2023/04/27 03:38:29;;;;;;;3.40;2.07;;;6.10;99.90;;;;;;5056939;28;20405;-67
2023/04/27 03:40:56;;;;;;;3.90;2.50;;;6.00;99.90;;;;;;5050643;28;20436;-68
2023/04/27 03:43:22;;;;;;;3.83;2.27;;;6.00;99.90;;;;;;5055783;28;20480;-67
2023/04/27 03:45:47;;;;;;;2.47;2.27;;;6.00;99.90;;;;;;5054590;28;20500;-67
2023/04/27 03:48:14;;;;;;;3.00;2.10;;;6.00;99.90;;;;;;5053860;28;20445;-67
2023/04/27 03:50:40;;;;;;;2.70;2.13;;;6.00;99.90;;;;;;5054019;28;20175;-67
2023/04/27 03:53:06;;;;;;;2.73;2.50;;;6.00;99.90;;;;;;5055425;28;20433;-68
2023/04/27 03:55:32;;;;;;;5.43;2.20;;;6.00;99.90;;;;;;5053244;28;20171;-67
2023/04/27 03:57:57;;;;;;;4.83;2.63;;;6.10;99.90;;;;;;5052526;28;20452;-66
2023/04/27 04:00:23;;;;;;;4.87;2.67;;;6.00;99.90;;;;;;5053556;28;20207;-66
2023/04/27 04:02:50;;;;;;;2.90;1.70;;;6.00;99.90;;;;;;5054268;28;20553;-66
2023/04/27 04:05:17;;;;;;;2.30;1.83;;;6.00;99.90;;;;;;5052017;28;20409;-66
2023/04/27 04:07:43;;;;;;;3.93;2.37;;;6.00;99.90;;;;;;5053233;28;20460;-66
2023/04/27 04:10:09;;;;;;;3.37;2.10;;;6.00;99.90;;;;;;5047424;28;20413;-67
2023/04/27 04:12:35;;;;;;;3.10;2.33;;;6.00;99.90;;;;;;5047737;28;20422;-67
2023/04/27 04:15:01;;;;;;;3.23;2.30;;;6.00;99.90;;;;;;5054329;28;20401;-67
2023/04/27 04:17:27;;;;;;;7.63;2.23;;;6.10;99.90;;;;;;5054394;28;20456;-67
2023/04/27 04:19:52;;;;;;;7.23;1.77;;;6.10;99.90;;;;;;5054304;28;20413;-68
2023/04/27 04:22:18;;;;;;;2.93;2.60;;;6.00;99.90;;;;;;5054863;28;20203;-67
2023/04/27 04:24:44;;;;;;;6.10;2.67;;;6.10;99.90;;;;;;5055409;28;20171;-67
2023/04/27 04:27:09;;;;;;;3.33;3.03;;;6.10;99.90;;;;;;5056453;28;20234;-67
2023/04/27 04:29:35;;;;;;;3.00;2.03;;;6.20;99.90;;;;;;5048106;28;20176;-67
2023/04/27 04:32:00;;;;;;;2.83;2.53;;;6.20;99.90;;;;;;5055920;28;20168;-67
2023/04/27 04:34:28;;;;;;;4.90;2.27;;;6.30;99.90;;;;;;5055935;28;20190;-68
2023/04/27 04:36:56;;;;;;;7.20;2.37;;;6.20;99.90;;;;;;5055600;28;20191;-67
2023/04/27 04:39:21;;;;;;;8.00;2.07;;;6.20;99.90;;;;;;5056852;28;20500;-68
2023/04/27 04:41:50;;;;;;;4.20;2.17;;;6.20;99.90;;;;;;5050671;28;20445;-67
2023/04/27 04:44:16;;;;;;;3.47;1.90;;;6.40;99.90;;;;;;5061830;28;20175;-67
2023/04/27 04:46:42;;;;;;;2.73;2.40;;;6.30;99.90;;;;;;5062270;28;20457;-67
2023/04/27 04:49:07;;;;;;;2.00;1.87;;;6.40;99.90;;;;;;5051701;28;20216;-67
2023/04/27 04:51:33;;;;;;;3.67;2.30;;;6.50;99.90;;;;;;5047995;28;20515;-67
2023/04/27 04:54:00;;;;;;;2.33;2.13;;;6.50;99.90;;;;;;5050277;28;20414;-66
2023/04/27 04:56:26;;;;;;;5.00;2.70;;;6.50;99.90;;;;;;5053423;28;20471;-66
2023/04/27 04:58:51;;;;;;;7.43;2.77;;;6.60;99.90;;;;;;5048095;28;20456;-68
2023/04/27 05:01:17;;;;;;;2.60;2.07;;;6.60;99.90;;;;;;5053262;28;20896;-67
2023/04/27 05:03:42;;;;;;;3.23;2.40;;;6.60;99.90;;;;;;5047093;28;20296;-66
2023/04/27 05:06:08;;;;;;;3.97;2.50;;;6.70;99.90;;;;;;5053346;28;20657;-66
2023/04/27 05:08:34;;;;;;;2.40;2.20;;;6.80;99.90;;;;;;5047961;28;20213;-66
2023/04/27 05:11:00;;;;;;;6.47;2.20;;;6.70;99.90;;;;;;5049711;28;20644;-67
2023/04/27 05:13:26;;;;;;;2.60;2.40;;;6.70;99.90;;;;;;5053657;28;20445;-67
2023/04/27 05:15:51;;;;;;;2.33;2.07;;;6.80;99.90;;;;;;5047872;28;20195;-66
2023/04/27 05:18:17;;;;;;;2.90;2.30;;;6.90;99.90;;;;;;5053327;28;20233;-66
2023/04/27 05:20:43;;;;;;;8.03;2.40;;;7.00;99.90;;;;;;5047394;28;20188;-66
2023/04/27 05:23:09;;;;;;;4.80;2.50;;;7.00;99.90;;;;;;5051131;28;20472;-67
2023/04/27 05:25:40;;;;;;;3.60;2.53;;;7.00;99.90;;;;;;5047413;28;20405;-67
2023/04/27 05:28:09;;;;;;;4.07;2.37;;;7.20;99.90;;;;;;5048974;28;20250;-67
2023/04/27 05:30:35;;;;;;;4.40;2.20;;;7.10;99.90;;;;;;5052917;28;20942;-67
2023/04/27 05:33:04;;;;;;;2.47;2.27;;;7.20;99.90;;;;;;5047492;28;20418;-67
2023/04/27 05:35:30;;;;;;;9.80;2.50;;;7.40;99.90;;;;;;5053224;28;20410;-67
2023/04/27 05:37:56;;;;;;;3.30;2.90;;;7.20;99.90;;;;;;5047358;28;20442;-67
2023/04/27 05:40:22;;;;;;;3.73;2.60;;;7.30;99.90;;;;;;5049566;28;20406;-67
2023/04/27 05:42:48;;;;;;;2.97;1.70;;;7.30;99.90;;;;;;5051579;28;20458;-67
2023/04/27 05:45:14;;;;;;;3.83;2.33;;;7.50;99.90;;;;;;5048477;28;20968;-67
2023/04/27 05:47:40;;;;;;;8.93;4.03;;;7.80;99.90;;;;;;5050373;28;20439;-67
2023/04/27 05:50:07;;;;;;;3.00;2.53;;;7.90;99.90;;;;;;5049917;28;20397;-66
2023/04/27 05:52:32;;;;;;;2.93;2.67;;;7.80;99.90;;;;;;5047985;28;20436;-67
2023/04/27 05:54:58;;;;;;;4.20;2.67;;;7.80;99.90;;;;;;5051067;28;20435;-66
2023/04/27 05:57:24;;;;;;;8.03;2.33;;;7.70;99.90;;;;;;5048771;28;20259;-66
2023/04/27 05:59:51;;;;;;;2.70;2.43;;;7.70;99.90;;;;;;5051432;28;20467;-67
2023/04/27 06:02:17;;;;;;;9.57;3.00;;;7.80;99.90;;;;;;5042857;28;20567;-66
2023/04/27 06:04:43;;;;;;;7.00;2.80;;;7.40;99.90;;;;;;5044795;28;20954;-66
2023/04/27 06:07:10;;;;;;;3.60;3.30;;;7.60;99.90;;;;;;5040837;28;20442;-66
2023/04/27 06:09:36;;;;;;;4.00;2.80;;;7.80;99.90;;;;;;5047374;28;20488;-67
2023/04/27 06:12:05;;;;;;;6.67;2.57;;;7.90;99.90;;;;;;5051757;28;20436;-67
2023/04/27 06:14:32;;;;;;;3.63;2.60;;;8.80;99.90;;;;;;5051492;28;20406;-67
2023/04/27 06:16:58;;;;;;;3.70;2.63;;;9.20;99.90;;;;;;5051600;28;20441;-67
2023/04/27 06:19:24;;;;;;;4.97;2.00;;;9.10;99.90;;;;;;5045854;28;20979;-67
2023/04/27 06:21:50;;;;;;;4.00;1.90;;;9.70;99.90;;;;;;5048880;28;20645;-68
2023/04/27 06:24:15;;;;;;;2.77;1.50;;;10.70;99.90;;;;;;5043700;28;20530;-68
2023/04/27 06:26:41;;;;;;;3.10;1.43;;;11.40;99.90;;;;;;5044688;28;20436;-68
2023/04/27 06:29:07;;;;;;;3.87;1.97;;;11.30;99.90;;;;;;5047063;28;20802;-68
2023/04/27 06:31:35;;;;;;;4.63;2.23;;;11.20;99.90;;;;;;5043977;28;20181;-67
2023/04/27 06:34:01;;;;;;;4.27;1.90;;;10.40;99.90;;;;;;5044600;28;20179;-67
2023/04/27 06:36:27;;;;;;;3.20;1.70;;;10.00;99.90;;;;;;5043387;28;20430;-67
2023/04/27 06:38:55;;;;;;;3.20;1.80;;;10.50;99.90;;;;;;5049536;28;20930;-67
2023/04/27 06:41:22;;;;;;;3.60;2.53;;;10.70;99.90;;;;;;5048487;28;20186;-67
2023/04/27 06:43:47;;;;;;;3.57;1.83;;;11.00;99.90;;;;;;5050438;28;20459;-67
2023/04/27 06:46:13;;;;;;;4.20;1.97;;;11.40;99.90;;;;;;5047119;28;20440;-75
2023/04/27 06:48:39;;;;;;;4.63;1.90;;;12.50;99.90;;;;;;5050453;28;20206;-66
2023/04/27 06:51:06;;;;;;;2.90;1.50;;;13.30;99.90;;;;;;5046960;28;20447;-67
2023/04/27 06:53:31;;;;;;;2.70;1.90;;;13.60;99.90;;;;;;5047148;28;20414;-67
2023/04/27 06:55:57;;;;;;;8.83;2.40;;;13.20;99.90;;;;;;5051303;28;20447;-67
2023/04/27 06:58:23;;;;;;;5.63;2.20;;;12.50;99.90;;;;;;5048243;28;20171;-67
2023/04/27 07:00:48;;;;;;;3.17;1.70;;;11.30;99.90;;;;;;5050218;28;20614;-66
2023/04/27 07:03:14;;;;;;;4.60;1.57;;;11.20;99.90;;;;;;5043542;28;20188;-66
2023/04/27 07:05:40;;;;;;;2.47;1.47;;;11.90;99.90;;;;;;5047993;28;20215;-67
2023/04/27 07:08:06;;;;;;;2.33;1.83;;;12.00;99.90;;;;;;5046064;28;20250;-67
2023/04/27 07:10:32;;;;;;;2.23;1.60;;;12.00;99.90;;;;;;5049277;28;20552;-67
2023/04/27 07:12:57;;;;;;;5.63;1.50;;;12.20;99.90;;;;;;5052606;28;20423;-66
2023/04/27 07:15:23;;;;;;;3.20;1.83;;;12.00;99.90;;;;;;5049636;28;20208;-67
2023/04/27 07:17:52;;;;;;;4.80;1.93;;;11.30;99.90;;;;;;5052948;28;20217;-67
2023/04/27 07:20:18;;;;;;;1.37;1.20;;;11.20;99.90;;;;;;5050631;28;20169;-67
2023/04/27 07:22:44;;;;;;;6.30;1.60;;;12.40;99.90;;;;;;5051953;28;20445;-67
2023/04/27 07:25:10;;;;;;;3.03;1.63;;;13.80;99.90;;;;;;5052990;28;20427;-66
2023/04/27 07:27:35;;;;;;;7.40;1.87;;;12.90;99.90;;;;;;5043576;28;20353;-66
2023/04/27 07:30:01;;;;;;;1.33;1.20;;;13.60;99.90;;;;;;5044090;28;20954;-66
2023/04/27 07:32:27;;;;;;;4.40;3.33;;;12.80;99.80;;;;;;5048472;28;20251;-67
2023/04/27 07:34:54;;;;;;;3.03;1.47;;;13.50;99.90;;;;;;5045809;28;20629;-67
2023/04/27 07:37:21;;;;;;;4.60;1.23;;;14.30;99.30;;;;;;5045183;28;20205;-67
2023/04/27 07:39:49;;;;;;;2.60;1.57;;;14.30;96.80;;;;;;5046280;28;20940;-67
2023/04/27 07:42:14;;;;;;;2.20;1.33;;;13.80;97.50;;;;;;5046533;28;20453;-67
2023/04/27 07:44:41;;;;;;;2.20;1.40;;;12.90;98.30;;;;;;5053471;28;20412;-67
2023/04/27 07:47:07;;;;;;;4.27;2.40;;;13.90;97.60;;;;;;5047076;28;20681;-67
2023/04/27 07:49:34;;;;;;;4.30;1.70;;;13.20;98.90;;;;;;5053940;28;20909;-67
2023/04/27 07:52:00;;;;;;;3.50;1.87;;;11.90;98.60;;;;;;5056421;28;20416;-67
2023/04/27 07:54:26;;;;;;;5.00;3.20;;;11.20;98.60;;;;;;5051717;28;20431;-67
2023/04/27 07:56:52;;;;;;;2.20;1.53;;;11.70;99.80;;;;;;5054017;28;20269;-67
2023/04/27 07:59:18;;;;;;;5.73;1.93;;;10.60;99.90;;;;;;5051158;28;20408;-66
2023/04/27 08:01:44;;;;;;;4.17;2.10;;;10.90;99.90;;;;;;5055983;28;20418;-66
2023/04/27 08:04:11;;;;;;;7.93;2.30;;;11.20;99.90;;;;;;5051456;28;20200;-67
2023/04/27 08:06:38;;;;;;;3.00;2.20;;;11.30;99.90;;;;;;5039081;28;20239;-67
2023/04/27 08:09:04;;;;;;;3.90;2.07;;;12.10;99.90;;;;;;5045339;28;20920;-67
2023/04/27 08:11:30;;;;;;;2.10;1.90;;;12.30;99.90;;;;;;5047015;28;20249;-67
2023/04/27 08:13:56;;;;;;;4.03;1.20;;;12.90;98.40;;;;;;5047391;28;20430;-67
2023/04/27 08:16:21;;;;;;;3.07;1.90;;;12.60;96.80;;;;;;5042156;28;20473;-67
2023/04/27 08:18:48;;;;;;;6.80;2.00;;;12.10;97.80;;;;;;5044946;28;20650;-67
2023/04/27 08:21:14;;;;;;;4.57;1.70;;;11.90;98.50;;;;;;5050598;28;20195;-67
2023/04/27 08:23:39;;;;;;;2.00;1.53;;;12.30;98.00;;;;;;5041835;28;20519;-67
2023/04/27 08:26:05;;;;;;;6.87;2.80;;;12.70;99.20;;;;;;5048980;28;20291;-67
2023/04/27 08:28:31;;;;;;;1.50;1.40;;;11.60;97.80;;;;;;5052739;28;20607;-67
2023/04/27 08:30:56;;;;;;;3.10;2.03;;;12.30;98.70;;;;;;5047733;28;20178;-67
2023/04/27 08:33:22;;;;;;;3.30;1.40;;;12.60;97.50;;;;;;5045482;28;20177;-67
2023/04/27 08:35:48;;;;;;;1.87;1.50;;;11.80;98.50;;;;;;5052703;28;20247;-67
2023/04/27 08:38:13;;;;;;;5.83;2.20;;;11.40;98.60;;;;;;5048270;28;20445;-67
2023/04/27 08:40:42;;;;;;;2.33;2.07;;;11.70;98.10;;;;;;5048538;28;20340;-67
2023/04/27 08:43:08;;;;;;;2.53;1.80;;;11.30;98.90;;;;;;5042926;28;20233;-67
2023/04/27 08:45:34;;;;;;;3.63;2.27;;;11.80;98.70;;;;;;5045258;28;20413;-67
2023/04/27 08:48:00;;;;;;;1.90;1.70;;;11.30;98.50;;;;;;5044957;28;20194;-67
2023/04/27 08:50:26;;;;;;;4.57;2.20;;;11.10;99.90;;;;;;5045996;28;20171;-67
2023/04/27 08:52:52;;;;;;;2.27;2.07;;;11.50;99.90;;;;;;5052636;28;20481;-67
2023/04/27 08:55:17;;;;;;;4.50;2.10;;;11.80;98.90;;;;;;5047993;28;20784;-67
2023/04/27 08:57:57;;;;;;;8.67;2.20;;;11.90;98.60;;;;;;5053588;28;20488;-67
2023/04/27 09:00:24;;;;;;;4.17;2.43;;;11.70;99.10;;;;;;5046678;28;20417;-68
2023/04/27 09:02:50;;;;;;;3.00;2.30;;;11.50;99.20;;;;;;5051837;28;20848;-68
2023/04/27 09:05:18;;;;;;;6.50;2.60;;;11.60;99.10;;;;;;5049471;28;20506;-67
2023/04/27 09:08:07;;;;;;;3.93;2.17;;;11.00;99.60;;;;;;5051296;28;20183;-67
2023/04/27 09:10:46;;;;;;;3.13;1.90;;;10.30;99.60;;;;;;5041518;28;20543;-67
2023/04/27 09:13:12;;;;;;;3.03;1.90;;;9.90;99.90;;;;;;5036523;28;20507;-67
2023/04/27 09:15:49;;;;;;;2.30;2.10;;;9.70;99.90;;;;;;5036726;28;20417;-66
2023/04/27 09:18:22;;;;;;;3.67;1.80;;;10.10;99.90;;;;;;5040147;28;20422;-67
2023/04/27 09:20:52;;;;;;;5.73;2.63;;;10.20;99.90;;;;;;5044740;28;20897;-67
2023/04/27 09:23:32;;;;;;;6.27;2.43;;;10.00;99.90;;;;;;5052742;28;20606;-67
2023/04/27 09:26:06;;;;;;;3.30;2.27;;;10.50;99.90;;;;;;5044113;28;20535;-67
2023/04/27 09:28:33;;;;;;;2.23;2.00;;;11.10;99.90;;;;;;5050880;28;20426;-67
2023/04/27 09:31:00;;;;;;;3.53;1.90;;;10.30;99.90;;;;;;5045478;28;20767;-67
2023/04/27 09:33:31;;;;;;;3.10;2.77;;;10.60;99.90;;;;;;5053035;28;20979;-67
2023/04/27 09:35:58;;;;;;;2.93;1.80;;;10.60;98.90;;;;;;5050182;28;20487;-66
2023/04/27 09:38:25;;;;;;;3.87;2.00;;;10.30;99.50;;;;;;5054579;28;20409;-67
2023/04/27 09:40:52;;;;;;;7.70;2.27;;;10.30;99.90;;;;;;5045400;28;20575;-68
2023/04/27 09:43:18;;;;;;;2.53;2.10;;;10.40;99.90;;;;;;5041588;28;20460;-68
2023/04/27 09:45:44;;;;;;;2.50;2.00;;;11.00;99.30;;;;;;5046845;28;20773;-67
2023/04/27 09:48:11;;;;;;;5.73;2.20;;;10.80;99.20;;;;;;5055053;28;20417;-67
2023/04/27 09:50:39;;;;;;;4.07;1.40;;;11.50;98.20;;;;;;5054946;28;20811;-67
2023/04/27 09:53:09;;;;;;;2.37;2.00;;;11.30;98.80;;;;;;5043463;28;20438;-67
2023/04/27 09:56:12;;;;;;;5.53;2.20;;;10.90;97.50;;;;;;5042873;28;20417;-67
2023/04/27 09:58:46;;;;;;;3.17;1.57;;;10.60;97.00;;;;;;5045842;28;20496;-68
2023/04/27 10:01:31;;;;;;;3.57;1.67;;;10.80;97.60;;;;;;5042300;28;20896;-66
2023/04/27 10:04:15;;;;;;;2.50;2.20;;;10.90;97.70;;;;;;5049742;28;20467;-68
2023/04/27 10:06:50;;;;;;;6.77;2.40;;;11.50;97.90;;;;;;5043999;28;20426;-67
2023/04/27 10:09:22;;;;;;;3.50;2.17;;;12.10;98.50;;;;;;5050620;28;21185;-66
2023/04/27 10:11:48;;;;;;;2.43;1.40;;;11.90;96.60;;;;;;5053421;28;20481;-66
2023/04/27 10:14:23;;;;;;;2.20;1.70;;;11.70;97.20;;;;;;5046307;28;20973;-67
2023/04/27 10:16:53;;;;;;;3.70;1.77;;;12.60;97.10;;;;;;5051001;28;20444;-67
2023/04/27 10:19:23;;;;;;;2.97;1.80;;;12.80;92.80;;;;;;5048467;28;20424;-67
2023/04/27 10:21:52;;;;;;;3.20;1.60;;;12.20;92.20;;;;;;5050715;28;20410;-67
2023/04/27 10:24:18;;;;;;;2.30;2.10;;;12.20;93.10;;;;;;5048034;28;20469;-67
2023/04/27 10:26:47;;;;;;;3.20;1.93;;;12.50;93.40;;;;;;5051214;28;20444;-67
2023/04/27 10:29:15;;;;;;;1.80;1.50;;;13.40;92.40;;;;;;5051157;28;20907;-67
2023/04/27 10:31:46;;;;;;;4.80;1.90;;;12.70;93.30;;;;;;5049983;28;20470;-67
2023/04/27 10:34:16;;;;;;;2.23;1.90;;;12.30;92.30;;;;;;5043653;28;20412;-67
2023/04/27 10:36:41;;;;;;;1.97;1.47;;;12.10;91.80;;;;;;5044126;28;20433;-66
2023/04/27 10:39:21;;;;;;;3.83;2.00;;;12.10;93.70;;;;;;5043958;28;20461;-67
2023/04/27 10:41:53;;;;;;;3.70;2.00;;;12.60;92.90;;;;;;5041802;28;20183;-66
2023/04/27 10:44:27;;;;;;;2.03;1.83;;;12.60;93.20;;;;;;5041592;28;20976;-67
2023/04/27 10:46:53;;;;;;;3.93;2.40;;;12.30;94.20;;;;;;5040984;28;20426;-67
2023/04/27 10:49:19;;;;;;;4.90;1.90;;;12.40;93.90;;;;;;5039859;28;20415;-67
2023/04/27 10:51:46;;;;;;;2.27;1.83;;;12.50;93.80;;;;;;5050977;28;20425;-68
2023/04/27 10:54:12;;;;;;;5.40;1.50;;;12.70;94.40;;;;;;5032800;28;20421;-67
2023/04/27 10:56:39;;;;;;;1.87;1.40;;;12.60;91.10;;;;;;5046308;28;20927;-68
2023/04/27 10:59:06;;;;;;;1.73;1.63;;;13.00;90.60;;;;;;5046236;28;20406;-68
2023/04/27 11:01:32;;;;;;;4.40;1.90;;;13.40;87.80;;;;;;5043510;28;20424;-66
2023/04/27 11:03:59;;;;;;;1.83;1.53;;;13.00;84.10;;;;;;5047890;28;20456;-67
2023/04/27 11:06:27;;;;;;;3.57;2.10;;;12.50;87.10;;;;;;5051321;28;20248;-67
2023/04/27 11:08:53;;;;;;;6.50;2.07;;;12.20;88.40;;;;;;5055374;28;20532;-67
2023/04/27 11:11:19;;;;;;;3.63;1.90;;;12.00;89.40;;;;;;5051514;28;20425;-68
2023/04/27 11:13:48;;;;;;;4.20;1.67;;;11.70;89.40;;;;;;5043746;28;20507;-66
2023/04/27 11:16:15;;;;;;;5.67;1.80;;;11.20;90.10;;;;;;5047782;28;20442;-68
2023/04/27 11:18:41;;;;;;;4.17;1.63;;;11.30;90.60;;;;;;5043888;28;20415;-67
2023/04/27 11:21:10;;;;;;;3.20;1.90;;;11.40;90.40;;;;;;5051875;28;20445;-67
2023/04/27 11:23:37;;;;;;;3.40;1.70;;;10.90;90.80;;;;;;5052430;28;20490;-67
2023/04/27 11:26:13;;;;;;;1.93;1.83;;;11.00;91.50;;;;;;5035294;28;20440;-67
2023/04/27 11:28:40;;;;;;;3.07;1.80;;;11.30;91.80;;;;;;5045457;28;20553;-68
2023/04/27 11:31:06;;;;;;;1.23;1.10;;;11.20;91.10;;;;;;5028442;28;20946;-67
2023/04/27 11:33:32;;;;;;;1.70;1.60;;;11.40;91.50;;;;;;5054476;28;20432;-67
2023/04/27 11:35:58;;;;;;;3.00;1.43;;;11.30;90.40;;;;;;5044816;28;20200;-67
2023/04/27 11:38:25;;;;;;;2.03;1.87;;;11.40;90.20;;;;;;5052378;28;20405;-67
2023/04/27 11:41:05;;;;;;;2.33;1.70;;;12.00;90.40;;;;;;5049026;28;20425;-67
2023/04/27 11:43:32;;;;;;;2.67;1.30;;;11.70;90.10;;;;;;5054502;28;20506;-67
2023/04/27 11:46:01;;;;;;;3.63;1.80;;;12.00;90.80;;;;;;5041753;28;20417;-66
2023/04/27 11:48:27;;;;;;;3.50;1.60;;;12.20;90.00;;;;;;5030754;28;20406;-66
2023/04/27 11:50:52;;;;;;;1.47;1.37;;;12.10;90.30;;;;;;5044382;28;20829;-66
2023/04/27 11:53:37;;;;;;;2.33;1.37;;;12.10;90.30;;;;;;5047233;28;20437;-67
2023/04/27 11:56:05;;;;;;;4.53;1.60;;;11.50;90.70;;;;;;5045168;28;20218;-67
2023/04/27 11:58:35;;;;;;;4.10;1.43;;;11.80;91.00;;;;;;5047551;28;20435;-67
2023/04/27 12:01:05;;;;;;;4.93;2.97;;;11.90;90.90;;;;;;5051828;28;20864;-67
2023/04/27 12:03:30;;;;;;;3.00;2.30;;;12.10;90.60;;;;;;5050577;28;20456;-69
2023/04/27 12:05:56;;;;;;;3.20;2.13;;;12.20;89.80;;;;;;5030712;28;20821;-67
2023/04/27 12:08:23;;;;;;;4.33;1.67;;;11.80;90.10;;;;;;5049167;28;20465;-67
2023/04/27 12:10:49;;;;;;;3.20;1.67;;;11.80;89.60;;;;;;5046957;28;20433;-67
2023/04/27 12:13:14;;;;;;;3.07;1.50;;;11.70;89.00;;;;;;5052452;28;20436;-67
2023/04/27 12:15:41;;;;;;;2.77;2.10;;;11.80;90.00;;;;;;5049770;28;20524;-67
2023/04/27 12:18:07;;;;;;;3.93;1.40;;;11.80;90.00;;;;;;5052059;28;20179;-67
2023/04/27 12:20:33;;;;;;;3.27;1.70;;;12.00;90.10;;;;;;5049823;28;20497;-67
2023/04/27 12:22:59;;;;;;;2.17;1.60;;;12.20;90.70;;;;;;5033564;28;20469;-67
2023/04/27 12:25:25;;;;;;;2.03;1.73;;;12.10;90.00;;;;;;5051064;28;20624;-68
2023/04/27 12:27:50;;;;;;;1.50;1.40;;;12.10;90.50;;;;;;5052688;28;20190;-68
2023/04/27 12:30:16;;;;;;;4.30;1.40;;;12.80;90.10;;;;;;5053435;28;20246;-67
2023/04/27 12:32:42;;;;;;;2.20;1.43;;;12.50;89.90;;;;;;5053090;28;20175;-67
2023/04/27 12:35:09;;;;;;;1.93;1.53;;;12.70;90.00;;;;;;5045903;28;20416;-66
2023/04/27 12:37:35;;;;;;;3.63;1.70;;;12.60;88.10;;;;;;5054576;28;20650;-66
2023/04/27 12:40:05;;;;;;;6.03;1.90;;;12.60;89.10;;;;;;5046318;28;20426;-67
2023/04/27 12:42:31;;;;;;;1.87;1.20;;;11.90;90.10;;;;;;5046904;28;20912;-68
2023/04/27 12:44:56;;;;;;;2.63;1.50;;;12.00;90.90;;;;;;5040443;28;20406;-68
2023/04/27 12:47:22;;;;;;;2.90;1.87;;;11.80;91.00;;;;;;5055264;28;20195;-68
2023/04/27 12:49:48;;;;;;;3.50;1.80;;;12.40;91.20;;;;;;5047692;28;20410;-67
2023/04/27 12:52:13;;;;;;;2.30;1.47;;;12.50;87.90;;;;;;5046663;28;20175;-67